Time,TemperatureF,DewpointF,PressureIn,WindDirection,WindDirectionDegrees,WindSpeedMPH,WindSpeedGustMPH,Humidity,HourlyPrecipIn,Conditions,Clouds,dailyrainin,SoftwareType,DateUTC
2013-03-10 00:01:00,36.4,30.5,29.92,SSE,147,3.0,3.0,79,0.00,,,0.01,Wunderground v.1.15,2013-03-10 05:01:00,
2013-03-10 00:06:00,36.7,30.5,29.92,SSE,149,3.0,6.0,78,0.00,,,0.01,Wunderground v.1.15,2013-03-10 05:06:00,
2013-03-10 00:16:00,37.0,30.5,29.92,SSE,151,3.0,6.0,77,0.00,,,0.01,Wunderground v.1.15,2013-03-10 05:16:00,
2013-03-10 00:26:00,37.8,30.9,29.92,SSE,160,3.0,6.0,76,0.00,,,0.01,Wunderground v.1.15,2013-03-10 05:26:00,
2013-03-10 00:36:00,38.8,30.9,29.92,SE,141,3.0,6.0,73,0.00,,,0.01,Wunderground v.1.15,2013-03-10 05:36:00,
2013-03-10 00:46:00,39.5,30.9,29.91,SSE,149,3.0,6.0,71,0.00,,,0.01,Wunderground v.1.15,2013-03-10 05:46:00,
2013-03-10 00:55:00,39.7,31.1,29.92,SE,144,3.0,6.0,71,0.00,,,0.01,Wunderground v.1.15,2013-03-10 05:55:00,
2013-03-10 01:01:00,39.8,30.8,29.91,SSE,152,3.0,3.0,70,0.00,,,0.01,Wunderground v.1.15,2013-03-10 06:01:00,
2013-03-10 01:06:00,39.7,30.7,29.91,SSE,148,3.0,4.0,70,0.00,,,0.01,Wunderground v.1.15,2013-03-10 06:06:00,
2013-03-10 01:15:00,39.9,30.9,29.91,South,175,4.0,6.0,70,0.00,,,0.01,Wunderground v.1.15,2013-03-10 06:15:00,
2013-03-10 01:21:00,40.2,30.8,29.91,SE,146,4.0,6.0,69,0.00,,,0.01,Wunderground v.1.15,2013-03-10 06:21:00,
2013-03-10 01:31:00,40.6,30.9,29.90,SSE,155,3.0,6.0,68,0.00,,,0.01,Wunderground v.1.15,2013-03-10 06:31:00,
2013-03-10 01:41:00,40.9,30.8,29.90,SSE,167,4.0,4.0,67,0.00,,,0.01,Wunderground v.1.15,2013-03-10 06:41:00,
2013-03-10 01:51:00,41.0,30.9,29.90,SSE,165,4.0,4.0,67,0.00,,,0.01,Wunderground v.1.15,2013-03-10 06:51:00,
2013-03-10 03:01:00,40.8,30.7,29.89,South,179,3.0,6.0,67,0.00,,,0.01,Wunderground v.1.15,2013-03-10 07:01:00,
2013-03-10 03:06:00,40.7,30.6,29.89,SSE,168,2.0,6.0,67,0.00,,,0.01,Wunderground v.1.15,2013-03-10 07:06:00,
2013-03-10 03:16:00,40.5,30.4,29.89,South,175,2.0,6.0,67,0.00,,,0.01,Wunderground v.1.15,2013-03-10 07:16:00,
2013-03-10 03:26:00,40.3,30.6,29.88,South,173,2.0,6.0,68,0.00,,,0.01,Wunderground v.1.15,2013-03-10 07:26:00,
2013-03-10 03:36:00,40.1,30.4,29.88,South,175,3.0,6.0,68,0.00,,,0.01,Wunderground v.1.15,2013-03-10 07:36:00,
2013-03-10 03:46:00,39.9,30.5,29.88,South,190,3.0,6.0,69,0.00,,,0.01,Wunderground v.1.15,2013-03-10 07:46:00,
2013-03-10 03:51:00,39.7,30.4,29.88,South,190,2.0,6.0,69,0.00,,,0.00,Wunderground v.1.15,2013-03-10 07:51:00,
2013-03-10 04:00:00,39.4,30.4,29.87,South,182,2.0,6.0,70,0.00,,,0.00,Wunderground v.1.15,2013-03-10 08:00:00,
2013-03-10 04:06:00,39.2,30.2,29.87,SSE,154,2.0,6.0,70,0.00,,,0.00,Wunderground v.1.15,2013-03-10 08:06:00,
2013-03-10 04:15:00,39.2,30.6,29.86,SSE,149,2.0,3.0,71,0.00,,,0.00,Wunderground v.1.15,2013-03-10 08:15:00,
2013-03-10 04:21:00,39.2,30.6,29.86,SSE,148,2.0,2.0,71,0.00,,,0.00,Wunderground v.1.15,2013-03-10 08:21:00,
2013-03-10 04:31:00,39.2,30.6,29.86,SSE,148,1.0,3.0,71,0.00,,,0.00,Wunderground v.1.15,2013-03-10 08:31:00,
2013-03-10 04:41:00,39.1,30.5,29.86,SSE,148,1.0,3.0,71,0.00,,,0.00,Wunderground v.1.15,2013-03-10 08:41:00,
2013-03-10 04:46:00,38.8,30.5,29.86,SSE,148,1.0,3.0,72,0.00,,,0.00,Wunderground v.1.15,2013-03-10 08:46:00,
2013-03-10 04:56:00,38.4,30.5,29.86,SSE,148,0.0,3.0,73,0.00,,,0.00,Wunderground v.1.15,2013-03-10 08:56:00,
2013-03-10 05:11:00,37.8,30.6,29.85,SSE,148,0.0,2.0,75,0.00,,,0.00,Wunderground v.1.15,2013-03-10 09:11:00,
2013-03-10 05:21:00,37.6,31.0,29.85,SSE,148,0.0,2.0,77,0.00,,,0.00,Wunderground v.1.15,2013-03-10 09:21:00,
2013-03-10 05:30:00,37.1,31.2,29.85,SSE,148,0.0,2.0,79,0.00,,,0.00,Wunderground v.1.15,2013-03-10 09:30:00,
2013-03-10 05:36:00,36.9,31.0,29.85,SSE,148,0.0,2.0,79,0.00,,,0.00,Wunderground v.1.15,2013-03-10 09:36:00,
2013-03-10 05:41:00,36.8,30.9,29.85,SSE,148,0.0,2.0,79,0.00,,,0.00,Wunderground v.1.15,2013-03-10 09:41:00,
2013-03-10 05:50:00,36.9,31.3,29.84,SSE,148,0.0,2.0,80,0.00,,,0.00,Wunderground v.1.15,2013-03-10 09:50:00,
2013-03-10 05:56:00,36.9,31.6,29.84,SSE,148,0.0,2.0,81,0.00,,,0.00,Wunderground v.1.15,2013-03-10 09:56:00,
2013-03-10 06:01:00,36.8,31.5,29.84,SSE,148,0.0,2.0,81,0.00,,,0.00,Wunderground v.1.15,2013-03-10 10:01:00,
2013-03-10 06:06:00,36.8,31.5,29.84,SSE,148,0.0,2.0,81,0.00,,,0.00,Wunderground v.1.15,2013-03-10 10:06:00,
2013-03-10 06:16:00,37.0,31.7,29.84,SSE,148,0.0,1.0,81,0.00,,,0.00,Wunderground v.1.15,2013-03-10 10:16:00,
2013-03-10 06:26:00,37.1,32.4,29.84,SSE,148,0.0,1.0,83,0.00,,,0.00,Wunderground v.1.15,2013-03-10 10:26:00,
2013-03-10 06:36:00,37.1,32.7,29.84,SSE,148,1.0,1.0,84,0.00,,,0.00,Wunderground v.1.15,2013-03-10 10:36:00,
2013-03-10 06:46:00,37.0,32.0,29.84,SSE,148,0.0,1.0,82,0.00,,,0.00,Wunderground v.1.15,2013-03-10 10:46:00,
2013-03-10 06:55:00,37.0,32.6,29.84,SSE,148,0.0,1.0,84,0.00,,,0.00,Wunderground v.1.15,2013-03-10 10:55:00,
2013-03-10 07:01:00,37.0,32.6,29.83,SSE,148,0.0,1.0,84,0.00,,,0.00,Wunderground v.1.15,2013-03-10 11:01:00,
2013-03-10 07:06:00,36.9,32.5,29.83,SSE,148,0.0,1.0,84,0.00,,,0.00,Wunderground v.1.15,2013-03-10 11:06:00,
2013-03-10 07:16:00,36.9,32.8,29.83,SSE,148,0.0,0.0,85,0.00,,,0.00,Wunderground v.1.15,2013-03-10 11:16:00,
2013-03-10 07:25:00,36.8,32.4,29.83,SSE,148,0.0,0.0,84,0.00,,,0.00,Wunderground v.1.15,2013-03-10 11:25:00,
2013-03-10 07:30:00,36.8,32.4,29.83,SSE,148,0.0,0.0,84,0.00,,,0.00,Wunderground v.1.15,2013-03-10 11:30:00,
2013-03-10 07:36:00,36.7,32.6,29.83,SSE,148,0.0,0.0,85,0.00,,,0.00,Wunderground v.1.15,2013-03-10 11:36:00,
2013-03-10 07:45:00,36.7,32.3,29.83,SSE,148,0.0,0.0,84,0.00,,,0.00,Wunderground v.1.15,2013-03-10 11:45:00,
2013-03-10 07:51:00,36.6,32.2,29.83,SSE,148,0.0,0.0,84,0.00,,,0.00,Wunderground v.1.15,2013-03-10 11:51:00,
2013-03-10 08:00:00,36.7,32.9,29.82,SSE,148,0.0,0.0,86,0.00,,,0.00,Wunderground v.1.15,2013-03-10 12:00:00,
2013-03-10 08:06:00,36.8,33.0,29.82,SSE,148,0.0,1.0,86,0.00,,,0.00,Wunderground v.1.15,2013-03-10 12:06:00,
2013-03-10 08:16:00,37.0,33.5,29.82,SSE,148,0.0,1.0,87,0.00,,,0.00,Wunderground v.1.15,2013-03-10 12:16:00,
2013-03-10 08:26:00,37.3,33.8,29.82,SSE,148,0.0,1.0,87,0.00,,,0.00,Wunderground v.1.15,2013-03-10 12:26:00,
2013-03-10 08:36:00,37.9,33.8,29.82,SSE,148,0.0,1.0,85,0.00,,,0.00,Wunderground v.1.15,2013-03-10 12:36:00,
2013-03-10 08:45:00,39.1,35.0,29.82,SSE,148,0.0,1.0,85,0.00,,,0.00,Wunderground v.1.15,2013-03-10 12:45:00,
2013-03-10 08:51:00,39.9,35.5,29.82,SSE,148,0.0,1.0,84,0.00,,,0.00,Wunderground v.1.15,2013-03-10 12:51:00,
2013-03-10 09:01:00,42.4,35.4,29.81,SSE,148,0.0,1.0,76,0.00,,,0.00,Wunderground v.1.15,2013-03-10 13:01:00,
2013-03-10 09:06:00,44.2,34.7,29.81,South,188,1.0,2.0,69,0.00,,,0.00,Wunderground v.1.15,2013-03-10 13:06:00,
2013-03-10 09:15:00,47.6,33.1,29.82,South,182,3.0,3.0,57,0.00,,,0.00,Wunderground v.1.15,2013-03-10 13:15:00,
2013-03-10 09:21:00,49.0,32.6,29.82,SSW,192,4.0,4.0,53,0.00,,,0.00,Wunderground v.1.15,2013-03-10 13:21:00,
2013-03-10 09:31:00,51.5,32.4,29.81,SSW,203,4.0,6.0,48,0.00,,,0.00,Wunderground v.1.15,2013-03-10 13:31:00,
2013-03-10 09:40:00,52.9,31.6,29.82,SSW,192,5.0,5.0,44,0.00,,,0.00,Wunderground v.1.15,2013-03-10 13:40:00,
2013-03-10 09:46:00,53.3,31.4,29.81,SSW,195,5.0,5.0,43,0.00,,,0.00,Wunderground v.1.15,2013-03-10 13:46:00,
2013-03-10 09:56:00,53.5,30.4,29.81,SSW,206,6.0,7.0,41,0.00,,,0.00,Wunderground v.1.15,2013-03-10 13:56:00,
2013-03-10 10:06:00,53.6,31.6,29.81,SSW,200,5.0,10.0,43,0.00,,,0.00,Wunderground v.1.15,2013-03-10 14:06:00,
2013-03-10 10:16:00,53.5,31.5,29.81,SSW,211,4.0,10.0,43,0.00,,,0.00,Wunderground v.1.15,2013-03-10 14:16:00,
2013-03-10 10:25:00,53.7,32.3,29.82,WNW,286,3.0,10.0,44,0.00,,,0.00,Wunderground v.1.15,2013-03-10 14:25:00,
2013-03-10 10:30:00,53.6,31.6,29.81,SW,224,2.0,10.0,43,0.00,,,0.00,Wunderground v.1.15,2013-03-10 14:30:00,
2013-03-10 10:36:00,53.7,30.5,29.81,WSW,240,3.0,10.0,41,0.00,,,0.00,Wunderground v.1.15,2013-03-10 14:36:00,
2013-03-10 10:46:00,53.7,30.5,29.81,SSW,213,4.0,10.0,41,0.00,,,0.00,Wunderground v.1.15,2013-03-10 14:46:00,
2013-03-10 10:51:00,53.8,30.6,29.81,SW,219,4.0,10.0,41,0.00,,,0.00,Wunderground v.1.15,2013-03-10 14:51:00,
2013-03-10 11:01:00,54.2,29.8,29.81,SSW,209,3.0,10.0,39,0.00,,,0.00,Wunderground v.1.15,2013-03-10 15:01:00,
2013-03-10 11:06:00,54.4,31.2,29.81,SSW,213,4.0,10.0,41,0.00,,,0.00,Wunderground v.1.15,2013-03-10 15:06:00,
2013-03-10 11:16:00,54.6,30.7,29.80,South,187,4.0,7.0,40,0.00,,,0.00,Wunderground v.1.15,2013-03-10 15:16:00,
2013-03-10 11:25:00,54.9,31.0,29.79,South,186,5.0,12.0,40,0.00,,,0.00,Wunderground v.1.15,2013-03-10 15:25:00,
2013-03-10 11:31:00,55.3,30.7,29.79,SSW,198,5.0,7.0,39,0.00,,,0.00,Wunderground v.1.15,2013-03-10 15:31:00,
2013-03-10 11:41:00,56.9,33.4,29.79,SW,217,6.0,11.0,41,0.00,,,0.00,Wunderground v.1.15,2013-03-10 15:41:00,
2013-03-10 11:46:00,57.7,32.9,29.79,SSW,206,7.0,11.0,39,0.00,,,0.00,Wunderground v.1.15,2013-03-10 15:46:00,
2013-03-10 11:55:00,58.1,31.9,29.79,SSW,203,8.0,8.0,37,0.00,,,0.00,Wunderground v.1.15,2013-03-10 15:55:00,
2013-03-10 12:01:00,58.7,32.5,29.79,SW,234,8.0,8.0,37,0.00,,,0.00,Wunderground v.1.15,2013-03-10 16:01:00,
2013-03-10 12:11:00,59.0,32.7,29.79,SSW,213,8.0,15.0,37,0.00,,,0.00,Wunderground v.1.15,2013-03-10 16:11:00,
2013-03-10 12:21:00,58.9,34.0,29.79,SSW,208,9.0,15.0,39,0.00,,,0.00,Wunderground v.1.15,2013-03-10 16:21:00,
2013-03-10 12:31:00,59.2,32.9,29.79,SSW,202,8.0,15.0,37,0.00,,,0.00,Wunderground v.1.15,2013-03-10 16:31:00,
2013-03-10 12:36:00,59.0,33.4,29.79,SSW,211,8.0,15.0,38,0.00,,,0.00,Wunderground v.1.15,2013-03-10 16:36:00,
2013-03-10 12:45:00,59.4,32.4,29.78,SSW,198,8.0,15.0,36,0.00,,,0.00,Wunderground v.1.15,2013-03-10 16:45:00,
2013-03-10 12:51:00,59.8,32.8,29.78,SW,232,8.0,15.0,36,0.00,,,0.00,Wunderground v.1.15,2013-03-10 16:51:00,
2013-03-10 13:00:00,60.1,33.0,29.78,SW,225,9.0,15.0,36,0.00,,,0.00,Wunderground v.1.15,2013-03-10 17:00:00,
2013-03-10 13:06:00,60.5,33.4,29.77,SSW,213,9.0,15.0,36,0.00,,,0.00,Wunderground v.1.15,2013-03-10 17:06:00,
2013-03-10 13:16:00,62.1,34.1,29.77,South,186,8.0,15.0,35,0.00,,,0.00,Wunderground v.1.15,2013-03-10 17:16:00,
2013-03-10 13:26:00,63.6,36.8,29.76,SW,219,8.0,10.0,37,0.00,,,0.00,Wunderground v.1.15,2013-03-10 17:26:00,
2013-03-10 13:36:00,62.5,34.5,29.76,WSW,242,7.0,8.0,35,0.00,,,0.00,Wunderground v.1.15,2013-03-10 17:36:00,
2013-03-10 13:46:00,63.0,35.6,29.76,SW,223,7.0,15.0,36,0.00,,,0.00,Wunderground v.1.15,2013-03-10 17:46:00,
2013-03-10 13:56:00,63.6,35.4,29.76,WSW,238,6.0,9.0,35,0.00,,,0.00,Wunderground v.1.15,2013-03-10 17:56:00,
2013-03-10 14:06:00,63.8,34.9,29.75,SSW,209,7.0,15.0,34,0.00,,,0.00,Wunderground v.1.15,2013-03-10 18:06:00,
2013-03-10 14:15:00,64.0,34.3,29.75,SSW,209,7.0,10.0,33,0.00,,,0.00,Wunderground v.1.15,2013-03-10 18:15:00,
2013-03-10 14:21:00,64.6,37.0,29.75,SW,232,6.0,10.0,36,0.00,,,0.00,Wunderground v.1.15,2013-03-10 18:21:00,
2013-03-10 14:31:00,65.7,35.8,29.74,WSW,242,6.0,10.0,33,0.00,,,0.00,Wunderground v.1.15,2013-03-10 18:31:00,
2013-03-10 14:40:00,66.0,35.3,29.73,SW,215,7.0,7.0,32,0.00,,,0.00,Wunderground v.1.15,2013-03-10 18:40:00,
2013-03-10 14:46:00,65.9,36.7,29.72,SW,217,8.0,10.0,34,0.00,,,0.00,Wunderground v.1.15,2013-03-10 18:46:00,
2013-03-10 14:56:00,65.9,36.7,29.71,SW,223,7.0,10.0,34,0.00,,,0.00,Wunderground v.1.15,2013-03-10 18:56:00,
2013-03-10 15:06:00,66.7,35.1,29.70,SW,227,9.0,9.0,31,0.00,,,0.00,Wunderground v.1.15,2013-03-10 19:06:00,
2013-03-10 15:16:00,66.6,35.8,29.71,SW,216,9.0,13.0,32,0.00,,,0.00,Wunderground v.1.15,2013-03-10 19:16:00,
2013-03-10 15:26:00,67.0,36.9,29.71,WSW,244,8.0,13.0,33,0.00,,,0.00,Wunderground v.1.15,2013-03-10 19:26:00,
2013-03-10 15:35:00,66.9,36.1,29.69,SW,225,7.0,13.0,32,0.00,,,0.00,Wunderground v.1.15,2013-03-10 19:35:00,
2013-03-10 15:41:00,67.3,38.7,29.70,SW,223,7.0,13.0,35,0.00,,,0.00,Wunderground v.1.15,2013-03-10 19:41:00,
2013-03-10 15:55:00,67.7,38.3,29.70,SSW,205,8.0,13.0,34,0.00,,,0.00,Wunderground v.1.15,2013-03-10 19:55:00,
2013-03-10 16:01:00,67.6,37.5,29.69,SW,236,7.0,7.0,33,0.00,,,0.00,Wunderground v.1.15,2013-03-10 20:01:00,
2013-03-10 16:11:00,67.9,37.7,29.69,South,175,7.0,16.0,33,0.00,,,0.00,Wunderground v.1.15,2013-03-10 20:11:00,
2013-03-10 16:20:00,67.6,38.2,29.68,WSW,242,7.0,7.0,34,0.00,,,0.00,Wunderground v.1.15,2013-03-10 20:20:00,
2013-03-10 16:26:00,67.1,37.0,29.69,SW,229,7.0,16.0,33,0.00,,,0.00,Wunderground v.1.15,2013-03-10 20:26:00,
2013-03-10 16:31:00,67.5,38.1,29.69,SW,236,8.0,8.0,34,0.00,,,0.00,Wunderground v.1.15,2013-03-10 20:31:00,
2013-03-10 16:40:00,68.0,37.8,29.68,WSW,242,6.0,16.0,33,0.00,,,0.00,Wunderground v.1.15,2013-03-10 20:40:00,
2013-03-10 16:45:00,67.5,37.4,29.68,SSW,204,7.0,16.0,33,0.00,,,0.00,Wunderground v.1.15,2013-03-10 20:45:00,
2013-03-10 16:51:00,66.9,36.8,29.69,West,259,7.0,7.0,33,0.00,,,0.00,Wunderground v.1.15,2013-03-10 20:51:00,
2013-03-10 17:01:00,67.1,37.8,29.69,SW,234,5.0,16.0,34,0.00,,,0.00,Wunderground v.1.15,2013-03-10 21:01:00,
2013-03-10 17:06:00,66.9,38.3,29.70,SSW,212,4.0,16.0,35,0.00,,,0.00,Wunderground v.1.15,2013-03-10 21:06:00,
2013-03-10 17:15:00,66.3,38.5,29.70,South,190,4.0,11.0,36,0.00,,,0.00,Wunderground v.1.15,2013-03-10 21:15:00,
2013-03-10 17:21:00,66.2,38.4,29.69,SW,214,4.0,4.0,36,0.00,,,0.00,Wunderground v.1.15,2013-03-10 21:21:00,
2013-03-10 17:31:00,66.0,38.3,29.69,SSW,213,2.0,2.0,36,0.00,,,0.00,Wunderground v.1.15,2013-03-10 21:31:00,
2013-03-10 17:40:00,66.0,39.0,29.70,SSW,213,1.0,11.0,37,0.00,,,0.00,Wunderground v.1.15,2013-03-10 21:40:00,
2013-03-10 17:46:00,66.1,40.4,29.69,SSW,213,1.0,11.0,39,0.00,,,0.00,Wunderground v.1.15,2013-03-10 21:46:00,
2013-03-10 17:55:00,65.9,38.9,29.69,SSW,213,1.0,11.0,37,0.00,,,0.00,Wunderground v.1.15,2013-03-10 21:55:00,
2013-03-10 18:01:00,65.8,38.8,29.69,SSW,213,1.0,11.0,37,0.00,,,0.00,Wunderground v.1.15,2013-03-10 22:01:00,
2013-03-10 18:06:00,65.7,38.7,29.69,SSW,213,1.0,11.0,37,0.00,,,0.00,Wunderground v.1.15,2013-03-10 22:06:00,
2013-03-10 18:16:00,65.0,38.1,29.69,SSW,213,1.0,3.0,37,0.00,,,0.00,Wunderground v.1.15,2013-03-10 22:16:00,
2013-03-10 18:26:00,62.3,38.9,29.69,North,9,2.0,4.0,42,0.00,,,0.00,Wunderground v.1.15,2013-03-10 22:26:00,
2013-03-10 18:35:00,60.0,38.0,29.69,North,355,2.0,3.0,44,0.00,,,0.00,Wunderground v.1.15,2013-03-10 22:35:00,
2013-03-10 18:40:00,58.9,37.0,29.70,North,355,2.0,3.0,44,0.00,,,0.00,Wunderground v.1.15,2013-03-10 22:40:00,
2013-03-10 18:51:00,57.2,37.7,29.70,North,360,2.0,3.0,48,0.00,,,0.00,Wunderground v.1.15,2013-03-10 22:51:00,
2013-03-10 19:01:00,55.8,36.9,29.71,North,5,2.0,2.0,49,0.00,,,0.00,Wunderground v.1.15,2013-03-10 23:01:00,
2013-03-10 19:06:00,55.2,37.9,29.72,North,5,1.0,4.0,52,0.00,,,0.00,Wunderground v.1.15,2013-03-10 23:06:00,
2013-03-10 19:15:00,53.9,37.6,29.72,North,5,1.0,4.0,54,0.00,,,0.00,Wunderground v.1.15,2013-03-10 23:15:00,
2013-03-10 19:20:00,53.5,37.3,29.71,North,5,0.0,4.0,54,0.00,,,0.00,Wunderground v.1.15,2013-03-10 23:20:00,
2013-03-10 19:26:00,53.2,37.4,29.71,North,5,0.0,4.0,55,0.00,,,0.00,Wunderground v.1.15,2013-03-10 23:26:00,
2013-03-10 19:36:00,52.2,37.4,29.72,North,5,0.0,4.0,57,0.00,,,0.00,Wunderground v.1.15,2013-03-10 23:36:00,
2013-03-10 19:45:00,51.5,37.6,29.71,North,5,0.0,4.0,59,0.00,,,0.00,Wunderground v.1.15,2013-03-10 23:45:00,
2013-03-10 19:51:00,51.5,39.3,29.71,North,5,1.0,1.0,63,0.00,,,0.00,Wunderground v.1.15,2013-03-10 23:51:00,
2013-03-10 20:01:00,50.5,38.8,29.72,North,5,0.0,4.0,64,0.00,,,0.00,Wunderground v.1.15,2013-03-11 00:01:00,
2013-03-10 20:06:00,50.0,39.1,29.72,North,5,0.0,4.0,66,0.00,,,0.00,Wunderground v.1.15,2013-03-11 00:06:00,
2013-03-10 20:16:00,48.6,37.7,29.71,North,5,1.0,1.0,66,0.00,,,0.00,Wunderground v.1.15,2013-03-11 00:16:00,
2013-03-10 20:26:00,48.3,39.0,29.72,North,5,0.0,1.0,70,0.00,,,0.00,Wunderground v.1.15,2013-03-11 00:26:00,
2013-03-10 20:36:00,48.4,37.9,29.71,South,169,1.0,2.0,67,0.00,,,0.00,Wunderground v.1.15,2013-03-11 00:36:00,
2013-03-10 20:46:00,51.2,36.9,29.72,South,169,1.0,2.0,58,0.00,,,0.00,Wunderground v.1.15,2013-03-11 00:46:00,
2013-03-10 20:55:00,53.7,36.0,29.72,South,169,2.0,2.0,51,0.00,,,0.00,Wunderground v.1.15,2013-03-11 00:55:00,
2013-03-10 21:01:00,54.6,35.8,29.72,South,172,2.0,3.0,49,0.00,,,0.00,Wunderground v.1.15,2013-03-11 01:01:00,
2013-03-10 21:06:00,55.3,35.4,29.72,South,187,2.0,3.0,47,0.00,,,0.00,Wunderground v.1.15,2013-03-11 01:06:00,
2013-03-10 21:16:00,56.5,34.8,29.72,South,182,3.0,3.0,44,0.00,,,0.00,Wunderground v.1.15,2013-03-11 01:16:00,
2013-03-10 21:26:00,57.2,34.3,29.72,South,182,3.0,3.0,42,0.00,,,0.00,Wunderground v.1.15,2013-03-11 01:26:00,
2013-03-10 21:36:00,57.4,34.5,29.72,South,187,2.0,3.0,42,0.00,,,0.00,Wunderground v.1.15,2013-03-11 01:36:00,
2013-03-10 21:41:00,57.3,34.4,29.72,South,187,2.0,3.0,42,0.00,,,0.00,Wunderground v.1.15,2013-03-11 01:41:00,
2013-03-10 21:56:00,57.8,33.6,29.72,SSW,206,5.0,7.0,40,0.00,,,0.00,Wunderground v.1.15,2013-03-11 01:56:00,
2013-03-10 22:06:00,57.8,33.6,29.73,SSW,203,4.0,5.0,40,0.00,,,0.00,Wunderground v.1.15,2013-03-11 02:06:00,
2013-03-10 22:16:00,57.8,33.6,29.72,SSW,195,4.0,8.0,40,0.00,,,0.00,Wunderground v.1.15,2013-03-11 02:16:00,
2013-03-10 22:26:00,57.8,33.6,29.71,South,180,5.0,8.0,40,0.00,,,0.00,Wunderground v.1.15,2013-03-11 02:26:00,
2013-03-10 22:36:00,57.9,34.3,29.70,South,175,6.0,11.0,41,0.00,,,0.00,Wunderground v.1.15,2013-03-11 02:36:00,
2013-03-10 22:45:00,57.5,34.0,29.70,South,175,5.0,8.0,41,0.00,,,0.00,Wunderground v.1.15,2013-03-11 02:45:00,
2013-03-10 22:51:00,57.6,34.1,29.70,SW,219,5.0,5.0,41,0.00,,,0.00,Wunderground v.1.15,2013-03-11 02:51:00,
2013-03-10 23:00:00,57.6,34.1,29.70,SSE,161,6.0,6.0,41,0.00,,,0.00,Wunderground v.1.15,2013-03-11 03:00:00,
2013-03-10 23:06:00,57.5,34.6,29.70,SSW,192,5.0,7.0,42,0.00,,,0.00,Wunderground v.1.15,2013-03-11 03:06:00,
2013-03-10 23:16:00,57.3,34.4,29.69,SSE,167,6.0,7.0,42,0.00,,,0.00,Wunderground v.1.15,2013-03-11 03:16:00,
2013-03-10 23:26:00,56.5,33.7,29.69,South,173,4.0,13.0,42,0.00,,,0.00,Wunderground v.1.15,2013-03-11 03:26:00,
2013-03-10 23:36:00,56.0,33.8,29.69,South,190,5.0,13.0,43,0.00,,,0.00,Wunderground v.1.15,2013-03-11 03:36:00,
2013-03-10 23:45:00,55.5,33.9,29.68,SSE,162,4.0,13.0,44,0.00,,,0.00,Wunderground v.1.15,2013-03-11 03:45:00,
2013-03-10 23:51:00,55.3,33.7,29.68,South,181,4.0,4.0,44,0.00,,,0.00,Wunderground v.1.15,2013-03-11 03:51:00,